sensor_id;sensor_type;location;lat;lon;timestamp;P1;durP1;ratioP1;P2;durP2;ratioP2
27505;SDS011;14939;43.596;1.320;2023-09-19T00:01:07;11.95;;;2.30;;
27505;SDS011;14939;43.596;1.320;2023-09-19T00:03:34;13.30;;;2.42;;
27505;SDS011;14939;43.596;1.320;2023-09-19T00:06:03;6.30;;;2.20;;
27505;SDS011;14939;43.596;1.320;2023-09-19T00:08:30;16.13;;;2.58;;
27505;SDS011;14939;43.596;1.320;2023-09-19T00:10:56;12.77;;;2.58;;
27505;SDS011;14939;43.596;1.320;2023-09-19T00:13:23;9.35;;;2.40;;
27505;SDS011;14939;43.596;1.320;2023-09-19T00:15:49;9.18;;;2.72;;
27505;SDS011;14939;43.596;1.320;2023-09-19T00:18:15;8.82;;;2.28;;
27505;SDS011;14939;43.596;1.320;2023-09-19T00:20:43;7.65;;;2.47;;
27505;SDS011;14939;43.596;1.320;2023-09-19T00:23:12;8.05;;;2.38;;
27505;SDS011;14939;43.596;1.320;2023-09-19T00:25:38;7.22;;;1.95;;
27505;SDS011;14939;43.596;1.320;2023-09-19T00:28:05;12.95;;;3.00;;
27505;SDS011;14939;43.596;1.320;2023-09-19T00:30:32;13.35;;;2.78;;
27505;SDS011;14939;43.596;1.320;2023-09-19T00:32:58;6.03;;;2.00;;
27505;SDS011;14939;43.596;1.320;2023-09-19T00:35:24;9.68;;;2.28;;
27505;SDS011;14939;43.596;1.320;2023-09-19T00:37:50;11.77;;;2.60;;
27505;SDS011;14939;43.596;1.320;2023-09-19T00:40:16;10.48;;;2.65;;
27505;SDS011;14939;43.596;1.320;2023-09-19T00:42:46;10.95;;;2.88;;
27505;SDS011;14939;43.596;1.320;2023-09-19T00:45:13;8.38;;;2.50;;
27505;SDS011;14939;43.596;1.320;2023-09-19T00:47:48;8.77;;;2.65;;
27505;SDS011;14939;43.596;1.320;2023-09-19T00:50:16;8.93;;;3.30;;
27505;SDS011;14939;43.596;1.320;2023-09-19T00:52:44;10.45;;;2.80;;
27505;SDS011;14939;43.596;1.320;2023-09-19T00:55:12;9.18;;;2.60;;
27505;SDS011;14939;43.596;1.320;2023-09-19T00:57:41;14.40;;;2.85;;
27505;SDS011;14939;43.596;1.320;2023-09-19T01:00:09;9.18;;;2.67;;
27505;SDS011;14939;43.596;1.320;2023-09-19T01:02:40;9.73;;;2.92;;
27505;SDS011;14939;43.596;1.320;2023-09-19T01:05:08;7.68;;;2.38;;
27505;SDS011;14939;43.596;1.320;2023-09-19T01:07:34;9.30;;;2.65;;
27505;SDS011;14939;43.596;1.320;2023-09-19T01:10:04;8.05;;;2.58;;
27505;SDS011;14939;43.596;1.320;2023-09-19T01:24:22;9.32;;;2.47;;
27505;SDS011;14939;43.596;1.320;2023-09-19T01:27:11;9.80;;;2.75;;
27505;SDS011;14939;43.596;1.320;2023-09-19T01:29:46;15.25;;;3.30;;
27505;SDS011;14939;43.596;1.320;2023-09-19T01:32:17;8.32;;;2.45;;
27505;SDS011;14939;43.596;1.320;2023-09-19T01:37:16;8.32;;;2.35;;
27505;SDS011;14939;43.596;1.320;2023-09-19T01:39:46;12.23;;;2.88;;
27505;SDS011;14939;43.596;1.320;2023-09-19T01:44:51;9.43;;;2.75;;
27505;SDS011;14939;43.596;1.320;2023-09-19T01:47:46;9.35;;;2.28;;
27505;SDS011;14939;43.596;1.320;2023-09-19T01:50:34;12.40;;;2.58;;
27505;SDS011;14939;43.596;1.320;2023-09-19T01:55:55;15.70;;;3.05;;
27505;SDS011;14939;43.596;1.320;2023-09-19T01:58:34;9.85;;;2.40;;
27505;SDS011;14939;43.596;1.320;2023-09-19T02:01:14;10.60;;;3.65;;
27505;SDS011;14939;43.596;1.320;2023-09-19T02:03:43;12.10;;;2.90;;
27505;SDS011;14939;43.596;1.320;2023-09-19T02:06:15;10.07;;;2.55;;
27505;SDS011;14939;43.596;1.320;2023-09-19T02:08:42;12.00;;;2.92;;
27505;SDS011;14939;43.596;1.320;2023-09-19T02:11:08;11.57;;;2.83;;
27505;SDS011;14939;43.596;1.320;2023-09-19T02:13:33;11.50;;;2.72;;
27505;SDS011;14939;43.596;1.320;2023-09-19T02:15:59;9.98;;;2.75;;
27505;SDS011;14939;43.596;1.320;2023-09-19T02:18:25;9.93;;;2.50;;
27505;SDS011;14939;43.596;1.320;2023-09-19T02:20:53;9.15;;;2.53;;
27505;SDS011;14939;43.596;1.320;2023-09-19T02:23:19;7.30;;;2.88;;
27505;SDS011;14939;43.596;1.320;2023-09-19T02:25:52;10.07;;;2.55;;
27505;SDS011;14939;43.596;1.320;2023-09-19T02:28:28;10.35;;;2.55;;
27505;SDS011;14939;43.596;1.320;2023-09-19T02:30:57;13.20;;;3.05;;
27505;SDS011;14939;43.596;1.320;2023-09-19T02:33:24;11.57;;;2.65;;
27505;SDS011;14939;43.596;1.320;2023-09-19T02:35:49;6.32;;;2.88;;
27505;SDS011;14939;43.596;1.320;2023-09-19T02:38:19;10.95;;;2.67;;
27505;SDS011;14939;43.596;1.320;2023-09-19T02:40:49;10.43;;;3.03;;
27505;SDS011;14939;43.596;1.320;2023-09-19T02:43:16;9.63;;;2.78;;
27505;SDS011;14939;43.596;1.320;2023-09-19T02:45:42;11.48;;;2.60;;
27505;SDS011;14939;43.596;1.320;2023-09-19T02:48:08;15.77;;;3.45;;
27505;SDS011;14939;43.596;1.320;2023-09-19T02:50:34;8.90;;;2.42;;
27505;SDS011;14939;43.596;1.320;2023-09-19T02:52:59;12.32;;;2.70;;
27505;SDS011;14939;43.596;1.320;2023-09-19T02:55:25;10.20;;;2.45;;
27505;SDS011;14939;43.596;1.320;2023-09-19T02:57:52;16.95;;;3.28;;
27505;SDS011;14939;43.596;1.320;2023-09-19T03:00:22;10.95;;;2.38;;
27505;SDS011;14939;43.596;1.320;2023-09-19T03:02:52;12.65;;;2.90;;
27505;SDS011;14939;43.596;1.320;2023-09-19T03:05:20;10.38;;;2.50;;
27505;SDS011;14939;43.596;1.320;2023-09-19T03:07:46;10.30;;;2.70;;
27505;SDS011;14939;43.596;1.320;2023-09-19T03:10:18;11.35;;;2.88;;
27505;SDS011;14939;43.596;1.320;2023-09-19T03:12:46;9.90;;;2.80;;
27505;SDS011;14939;43.596;1.320;2023-09-19T03:15:12;12.57;;;2.90;;
27505;SDS011;14939;43.596;1.320;2023-09-19T03:17:42;10.43;;;2.70;;
27505;SDS011;14939;43.596;1.320;2023-09-19T03:20:08;10.93;;;2.53;;
27505;SDS011;14939;43.596;1.320;2023-09-19T03:22:37;13.10;;;2.85;;
27505;SDS011;14939;43.596;1.320;2023-09-19T03:25:03;8.57;;;2.45;;
27505;SDS011;14939;43.596;1.320;2023-09-19T03:27:33;7.72;;;2.63;;
27505;SDS011;14939;43.596;1.320;2023-09-19T03:29:59;11.18;;;2.58;;
27505;SDS011;14939;43.596;1.320;2023-09-19T03:32:25;10.02;;;2.50;;
27505;SDS011;14939;43.596;1.320;2023-09-19T03:34:51;13.88;;;3.33;;
27505;SDS011;14939;43.596;1.320;2023-09-19T03:37:17;8.13;;;2.55;;
27505;SDS011;14939;43.596;1.320;2023-09-19T03:39:43;11.35;;;2.70;;
27505;SDS011;14939;43.596;1.320;2023-09-19T03:42:08;12.98;;;2.70;;
27505;SDS011;14939;43.596;1.320;2023-09-19T03:44:34;10.40;;;2.80;;
27505;SDS011;14939;43.596;1.320;2023-09-19T03:47:00;13.68;;;2.58;;
27505;SDS011;14939;43.596;1.320;2023-09-19T03:49:26;10.50;;;2.55;;
27505;SDS011;14939;43.596;1.320;2023-09-19T03:51:51;11.82;;;2.85;;
27505;SDS011;14939;43.596;1.320;2023-09-19T03:54:17;10.77;;;2.65;;
27505;SDS011;14939;43.596;1.320;2023-09-19T03:56:44;12.48;;;2.78;;
27505;SDS011;14939;43.596;1.320;2023-09-19T03:59:10;8.82;;;2.33;;
27505;SDS011;14939;43.596;1.320;2023-09-19T04:01:37;13.82;;;3.03;;
27505;SDS011;14939;43.596;1.320;2023-09-19T04:04:03;11.73;;;2.80;;
27505;SDS011;14939;43.596;1.320;2023-09-19T04:06:34;8.52;;;2.53;;
27505;SDS011;14939;43.596;1.320;2023-09-19T04:09:01;12.15;;;3.00;;
27505;SDS011;14939;43.596;1.320;2023-09-19T04:11:32;9.52;;;2.50;;
27505;SDS011;14939;43.596;1.320;2023-09-19T04:13:58;15.27;;;2.97;;
27505;SDS011;14939;43.596;1.320;2023-09-19T04:16:24;13.15;;;2.75;;
27505;SDS011;14939;43.596;1.320;2023-09-19T04:18:50;10.55;;;2.65;;
27505;SDS011;14939;43.596;1.320;2023-09-19T04:21:15;12.75;;;2.85;;
27505;SDS011;14939;43.596;1.320;2023-09-19T04:23:41;10.05;;;3.10;;
27505;SDS011;14939;43.596;1.320;2023-09-19T04:26:07;9.38;;;2.72;;
27505;SDS011;14939;43.596;1.320;2023-09-19T04:28:33;15.85;;;2.83;;
27505;SDS011;14939;43.596;1.320;2023-09-19T04:30:59;11.65;;;3.00;;
27505;SDS011;14939;43.596;1.320;2023-09-19T04:33:26;13.52;;;3.10;;
27505;SDS011;14939;43.596;1.320;2023-09-19T04:35:54;10.35;;;3.22;;
27505;SDS011;14939;43.596;1.320;2023-09-19T04:38:20;14.68;;;2.63;;
27505;SDS011;14939;43.596;1.320;2023-09-19T04:40:47;12.60;;;3.05;;
27505;SDS011;14939;43.596;1.320;2023-09-19T04:43:13;12.77;;;3.00;;
27505;SDS011;14939;43.596;1.320;2023-09-19T04:45:38;11.57;;;3.88;;
27505;SDS011;14939;43.596;1.320;2023-09-19T04:48:05;12.80;;;3.30;;
27505;SDS011;14939;43.596;1.320;2023-09-19T04:50:33;14.88;;;3.47;;
27505;SDS011;14939;43.596;1.320;2023-09-19T04:52:59;12.40;;;2.95;;
27505;SDS011;14939;43.596;1.320;2023-09-19T04:55:26;6.75;;;2.78;;
27505;SDS011;14939;43.596;1.320;2023-09-19T04:57:52;12.55;;;2.97;;
27505;SDS011;14939;43.596;1.320;2023-09-19T05:00:22;16.90;;;3.40;;
27505;SDS011;14939;43.596;1.320;2023-09-19T05:02:54;13.90;;;3.20;;
27505;SDS011;14939;43.596;1.320;2023-09-19T05:05:21;16.25;;;3.55;;
27505;SDS011;14939;43.596;1.320;2023-09-19T05:07:48;15.30;;;3.30;;
27505;SDS011;14939;43.596;1.320;2023-09-19T05:10:14;18.15;;;3.50;;
27505;SDS011;14939;43.596;1.320;2023-09-19T05:12:44;17.83;;;4.18;;
27505;SDS011;14939;43.596;1.320;2023-09-19T05:15:13;19.05;;;3.40;;
27505;SDS011;14939;43.596;1.320;2023-09-19T05:17:40;21.63;;;3.60;;
27505;SDS011;14939;43.596;1.320;2023-09-19T05:20:06;18.60;;;3.40;;
27505;SDS011;14939;43.596;1.320;2023-09-19T05:22:41;15.18;;;3.53;;
27505;SDS011;14939;43.596;1.320;2023-09-19T05:25:08;11.90;;;3.47;;
27505;SDS011;14939;43.596;1.320;2023-09-19T05:27:41;8.57;;;3.33;;
27505;SDS011;14939;43.596;1.320;2023-09-19T05:30:07;12.55;;;3.10;;
27505;SDS011;14939;43.596;1.320;2023-09-19T05:32:33;13.40;;;3.00;;
27505;SDS011;14939;43.596;1.320;2023-09-19T05:34:59;14.38;;;3.10;;
27505;SDS011;14939;43.596;1.320;2023-09-19T05:37:25;9.50;;;3.17;;
27505;SDS011;14939;43.596;1.320;2023-09-19T05:39:51;10.70;;;2.97;;
27505;SDS011;14939;43.596;1.320;2023-09-19T05:42:18;18.27;;;3.55;;
27505;SDS011;14939;43.596;1.320;2023-09-19T05:44:44;14.82;;;3.72;;
27505;SDS011;14939;43.596;1.320;2023-09-19T05:47:10;9.43;;;3.60;;
27505;SDS011;14939;43.596;1.320;2023-09-19T05:49:35;16.10;;;3.85;;
27505;SDS011;14939;43.596;1.320;2023-09-19T05:52:07;11.10;;;3.13;;
27505;SDS011;14939;43.596;1.320;2023-09-19T05:54:33;13.63;;;3.25;;
27505;SDS011;14939;43.596;1.320;2023-09-19T05:56:59;11.45;;;2.90;;
27505;SDS011;14939;43.596;1.320;2023-09-19T05:59:26;9.20;;;3.30;;
27505;SDS011;14939;43.596;1.320;2023-09-19T06:01:52;11.00;;;3.28;;
27505;SDS011;14939;43.596;1.320;2023-09-19T06:04:18;13.02;;;3.60;;
27505;SDS011;14939;43.596;1.320;2023-09-19T06:06:47;11.25;;;3.38;;
27505;SDS011;14939;43.596;1.320;2023-09-19T06:09:13;20.10;;;3.28;;
27505;SDS011;14939;43.596;1.320;2023-09-19T06:11:41;10.07;;;3.03;;
27505;SDS011;14939;43.596;1.320;2023-09-19T06:14:07;14.15;;;3.22;;
27505;SDS011;14939;43.596;1.320;2023-09-19T06:16:32;12.23;;;3.22;;
27505;SDS011;14939;43.596;1.320;2023-09-19T06:18:58;15.52;;;3.22;;
27505;SDS011;14939;43.596;1.320;2023-09-19T06:21:25;13.73;;;3.17;;
27505;SDS011;14939;43.596;1.320;2023-09-19T06:23:52;11.57;;;3.30;;
27505;SDS011;14939;43.596;1.320;2023-09-19T06:26:18;7.93;;;3.28;;
27505;SDS011;14939;43.596;1.320;2023-09-19T06:28:44;8.88;;;3.30;;
27505;SDS011;14939;43.596;1.320;2023-09-19T06:31:09;11.98;;;3.55;;
27505;SDS011;14939;43.596;1.320;2023-09-19T06:33:36;17.95;;;3.60;;
27505;SDS011;14939;43.596;1.320;2023-09-19T06:36:06;9.60;;;2.92;;
27505;SDS011;14939;43.596;1.320;2023-09-19T06:38:32;13.60;;;3.50;;
27505;SDS011;14939;43.596;1.320;2023-09-19T06:41:02;25.77;;;4.20;;
27505;SDS011;14939;43.596;1.320;2023-09-19T06:43:32;9.18;;;3.60;;
27505;SDS011;14939;43.596;1.320;2023-09-19T06:45:59;11.32;;;3.75;;
27505;SDS011;14939;43.596;1.320;2023-09-19T06:48:27;14.93;;;3.28;;
27505;SDS011;14939;43.596;1.320;2023-09-19T06:50:58;13.88;;;3.38;;
27505;SDS011;14939;43.596;1.320;2023-09-19T06:53:29;10.05;;;3.08;;
27505;SDS011;14939;43.596;1.320;2023-09-19T06:55:57;11.65;;;2.95;;
27505;SDS011;14939;43.596;1.320;2023-09-19T06:58:23;10.10;;;3.00;;
27505;SDS011;14939;43.596;1.320;2023-09-19T07:00:48;13.35;;;3.22;;
27505;SDS011;14939;43.596;1.320;2023-09-19T07:03:15;9.38;;;3.10;;
27505;SDS011;14939;43.596;1.320;2023-09-19T07:05:43;8.70;;;2.80;;
27505;SDS011;14939;43.596;1.320;2023-09-19T07:08:09;9.65;;;2.60;;
27505;SDS011;14939;43.596;1.320;2023-09-19T07:10:37;7.47;;;2.60;;
27505;SDS011;14939;43.596;1.320;2023-09-19T07:13:07;8.27;;;2.72;;
27505;SDS011;14939;43.596;1.320;2023-09-19T07:15:36;10.10;;;2.90;;
27505;SDS011;14939;43.596;1.320;2023-09-19T07:18:11;9.15;;;2.83;;
27505;SDS011;14939;43.596;1.320;2023-09-19T07:20:41;9.65;;;2.47;;
27505;SDS011;14939;43.596;1.320;2023-09-19T07:23:13;8.05;;;2.65;;
27505;SDS011;14939;43.596;1.320;2023-09-19T07:25:40;8.48;;;3.00;;
27505;SDS011;14939;43.596;1.320;2023-09-19T07:28:06;10.95;;;3.00;;
27505;SDS011;14939;43.596;1.320;2023-09-19T07:30:32;11.65;;;3.00;;
27505;SDS011;14939;43.596;1.320;2023-09-19T07:33:02;16.45;;;3.38;;
27505;SDS011;14939;43.596;1.320;2023-09-19T07:35:29;9.40;;;2.92;;
27505;SDS011;14939;43.596;1.320;2023-09-19T07:37:54;7.80;;;2.63;;
27505;SDS011;14939;43.596;1.320;2023-09-19T07:40:21;7.80;;;2.53;;
27505;SDS011;14939;43.596;1.320;2023-09-19T07:42:48;13.77;;;3.03;;
27505;SDS011;14939;43.596;1.320;2023-09-19T07:45:15;9.65;;;3.10;;
27505;SDS011;14939;43.596;1.320;2023-09-19T07:47:45;10.88;;;3.13;;
27505;SDS011;14939;43.596;1.320;2023-09-19T07:50:12;10.77;;;3.10;;
27505;SDS011;14939;43.596;1.320;2023-09-19T07:52:38;14.75;;;3.25;;
27505;SDS011;14939;43.596;1.320;2023-09-19T07:55:07;13.00;;;3.17;;
27505;SDS011;14939;43.596;1.320;2023-09-19T07:57:34;12.43;;;2.67;;
27505;SDS011;14939;43.596;1.320;2023-09-19T08:00:01;10.10;;;2.30;;
27505;SDS011;14939;43.596;1.320;2023-09-19T08:02:29;12.10;;;2.20;;
27505;SDS011;14939;43.596;1.320;2023-09-19T08:04:58;10.20;;;2.53;;
27505;SDS011;14939;43.596;1.320;2023-09-19T08:07:25;10.63;;;2.40;;
27505;SDS011;14939;43.596;1.320;2023-09-19T08:09:51;9.63;;;2.75;;
27505;SDS011;14939;43.596;1.320;2023-09-19T08:12:16;10.50;;;2.60;;
27505;SDS011;14939;43.596;1.320;2023-09-19T08:14:42;12.63;;;2.65;;
27505;SDS011;14939;43.596;1.320;2023-09-19T08:17:08;9.18;;;2.33;;
27505;SDS011;14939;43.596;1.320;2023-09-19T08:19:34;8.27;;;2.00;;
27505;SDS011;14939;43.596;1.320;2023-09-19T08:21:59;10.65;;;2.20;;
27505;SDS011;14939;43.596;1.320;2023-09-19T08:24:28;9.65;;;2.30;;
27505;SDS011;14939;43.596;1.320;2023-09-19T08:26:55;13.10;;;2.55;;
27505;SDS011;14939;43.596;1.320;2023-09-19T08:29:22;11.63;;;2.20;;
27505;SDS011;14939;43.596;1.320;2023-09-19T08:31:52;11.75;;;2.35;;
27505;SDS011;14939;43.596;1.320;2023-09-19T08:34:22;13.23;;;2.40;;
27505;SDS011;14939;43.596;1.320;2023-09-19T08:36:50;11.25;;;2.10;;
27505;SDS011;14939;43.596;1.320;2023-09-19T08:39:25;10.90;;;1.90;;
27505;SDS011;14939;43.596;1.320;2023-09-19T08:41:57;12.73;;;1.88;;
27505;SDS011;14939;43.596;1.320;2023-09-19T08:44:26;7.82;;;1.75;;
27505;SDS011;14939;43.596;1.320;2023-09-19T08:46:58;10.68;;;1.50;;
27505;SDS011;14939;43.596;1.320;2023-09-19T08:50:00;9.57;;;1.88;;
27505;SDS011;14939;43.596;1.320;2023-09-19T08:52:41;12.55;;;2.20;;
27505;SDS011;14939;43.596;1.320;2023-09-19T08:55:07;10.00;;;1.80;;
27505;SDS011;14939;43.596;1.320;2023-09-19T08:57:38;10.10;;;1.55;;
27505;SDS011;14939;43.596;1.320;2023-09-19T09:00:07;9.27;;;1.95;;
27505;SDS011;14939;43.596;1.320;2023-09-19T09:02:38;12.98;;;1.90;;
27505;SDS011;14939;43.596;1.320;2023-09-19T09:05:10;6.88;;;1.88;;
27505;SDS011;14939;43.596;1.320;2023-09-19T09:07:42;8.60;;;2.00;;
27505;SDS011;14939;43.596;1.320;2023-09-19T09:10:09;7.45;;;1.58;;
27505;SDS011;14939;43.596;1.320;2023-09-19T09:12:35;7.28;;;1.52;;
27505;SDS011;14939;43.596;1.320;2023-09-19T09:15:02;9.43;;;1.80;;
27505;SDS011;14939;43.596;1.320;2023-09-19T09:17:29;13.48;;;2.10;;
27505;SDS011;14939;43.596;1.320;2023-09-19T09:19:55;8.30;;;1.67;;
27505;SDS011;14939;43.596;1.320;2023-09-19T09:22:22;6.13;;;1.60;;
27505;SDS011;14939;43.596;1.320;2023-09-19T09:24:52;9.60;;;1.98;;
27505;SDS011;14939;43.596;1.320;2023-09-19T09:27:23;9.95;;;2.05;;
27505;SDS011;14939;43.596;1.320;2023-09-19T09:29:49;12.45;;;1.85;;
27505;SDS011;14939;43.596;1.320;2023-09-19T09:32:23;12.48;;;2.28;;
27505;SDS011;14939;43.596;1.320;2023-09-19T09:34:54;11.50;;;2.03;;
27505;SDS011;14939;43.596;1.320;2023-09-19T09:37:24;5.10;;;1.50;;
27505;SDS011;14939;43.596;1.320;2023-09-19T09:39:53;9.23;;;1.88;;
27505;SDS011;14939;43.596;1.320;2023-09-19T09:42:35;8.43;;;1.88;;
27505;SDS011;14939;43.596;1.320;2023-09-19T09:47:45;6.78;;;1.45;;
27505;SDS011;14939;43.596;1.320;2023-09-19T09:50:36;8.80;;;1.52;;
27505;SDS011;14939;43.596;1.320;2023-09-19T09:53:28;7.03;;;1.50;;
27505;SDS011;14939;43.596;1.320;2023-09-19T09:58:49;5.18;;;1.27;;
27505;SDS011;14939;43.596;1.320;2023-09-19T10:01:20;7.82;;;1.45;;
27505;SDS011;14939;43.596;1.320;2023-09-19T10:03:51;16.63;;;2.03;;
27505;SDS011;14939;43.596;1.320;2023-09-19T10:06:22;8.60;;;1.67;;
27505;SDS011;14939;43.596;1.320;2023-09-19T10:09:07;7.60;;;1.38;;
27505;SDS011;14939;43.596;1.320;2023-09-19T10:11:42;10.10;;;1.50;;
27505;SDS011;14939;43.596;1.320;2023-09-19T10:14:10;6.57;;;1.48;;
27505;SDS011;14939;43.596;1.320;2023-09-19T10:16:42;5.43;;;1.30;;
27505;SDS011;14939;43.596;1.320;2023-09-19T10:19:19;5.88;;;1.45;;
27505;SDS011;14939;43.596;1.320;2023-09-19T10:21:49;6.25;;;1.48;;
27505;SDS011;14939;43.596;1.320;2023-09-19T10:24:18;7.38;;;1.20;;
27505;SDS011;14939;43.596;1.320;2023-09-19T10:26:45;5.80;;;1.10;;
27505;SDS011;14939;43.596;1.320;2023-09-19T10:29:15;5.20;;;1.10;;
27505;SDS011;14939;43.596;1.320;2023-09-19T10:31:43;8.35;;;1.70;;
27505;SDS011;14939;43.596;1.320;2023-09-19T10:34:14;6.32;;;1.20;;
27505;SDS011;14939;43.596;1.320;2023-09-19T10:36:40;4.55;;;0.93;;
27505;SDS011;14939;43.596;1.320;2023-09-19T10:39:11;4.65;;;0.93;;
27505;SDS011;14939;43.596;1.320;2023-09-19T10:41:43;3.25;;;1.33;;
27505;SDS011;14939;43.596;1.320;2023-09-19T10:44:23;3.95;;;0.93;;
27505;SDS011;14939;43.596;1.320;2023-09-19T10:46:50;4.10;;;1.10;;
27505;SDS011;14939;43.596;1.320;2023-09-19T10:49:17;4.25;;;0.88;;
27505;SDS011;14939;43.596;1.320;2023-09-19T10:51:44;5.75;;;1.00;;
27505;SDS011;14939;43.596;1.320;2023-09-19T10:54:13;5.15;;;1.02;;
27505;SDS011;14939;43.596;1.320;2023-09-19T10:56:43;5.63;;;1.20;;
27505;SDS011;14939;43.596;1.320;2023-09-19T10:59:20;6.30;;;1.15;;
27505;SDS011;14939;43.596;1.320;2023-09-19T11:04:28;5.63;;;1.40;;
27505;SDS011;14939;43.596;1.320;2023-09-19T11:07:13;3.42;;;1.00;;
27505;SDS011;14939;43.596;1.320;2023-09-19T11:12:12;5.95;;;1.40;;
27505;SDS011;14939;43.596;1.320;2023-09-19T11:14:58;4.03;;;0.90;;
27505;SDS011;14939;43.596;1.320;2023-09-19T11:17:30;3.25;;;1.05;;
27505;SDS011;14939;43.596;1.320;2023-09-19T11:30:40;6.20;;;1.40;;
27505;SDS011;14939;43.596;1.320;2023-09-19T11:43:47;5.78;;;0.95;;
27505;SDS011;14939;43.596;1.320;2023-09-19T11:46:15;3.58;;;1.00;;
27505;SDS011;14939;43.596;1.320;2023-09-19T11:48:47;3.17;;;1.00;;
27505;SDS011;14939;43.596;1.320;2023-09-19T11:51:15;2.70;;;0.93;;
27505;SDS011;14939;43.596;1.320;2023-09-19T11:53:47;2.53;;;0.73;;
27505;SDS011;14939;43.596;1.320;2023-09-19T11:56:17;4.95;;;1.13;;
27505;SDS011;14939;43.596;1.320;2023-09-19T11:58:45;5.30;;;1.08;;
27505;SDS011;14939;43.596;1.320;2023-09-19T12:01:14;4.82;;;1.23;;
27505;SDS011;14939;43.596;1.320;2023-09-19T12:03:46;6.85;;;0.95;;
27505;SDS011;14939;43.596;1.320;2023-09-19T12:06:15;6.38;;;1.33;;
27505;SDS011;14939;43.596;1.320;2023-09-19T12:08:42;5.43;;;1.08;;
27505;SDS011;14939;43.596;1.320;2023-09-19T12:11:15;2.03;;;0.82;;
27505;SDS011;14939;43.596;1.320;2023-09-19T12:13:44;4.80;;;0.90;;
27505;SDS011;14939;43.596;1.320;2023-09-19T12:16:12;4.28;;;0.98;;
27505;SDS011;14939;43.596;1.320;2023-09-19T12:18:43;2.67;;;0.77;;
27505;SDS011;14939;43.596;1.320;2023-09-19T12:26:44;3.55;;;0.98;;
27505;SDS011;14939;43.596;1.320;2023-09-19T12:29:20;4.22;;;1.13;;
27505;SDS011;14939;43.596;1.320;2023-09-19T12:31:53;3.47;;;1.00;;
27505;SDS011;14939;43.596;1.320;2023-09-19T12:34:22;4.60;;;1.00;;
27505;SDS011;14939;43.596;1.320;2023-09-19T12:37:03;3.85;;;0.80;;
27505;SDS011;14939;43.596;1.320;2023-09-19T12:39:31;7.22;;;1.30;;
27505;SDS011;14939;43.596;1.320;2023-09-19T12:41:56;3.75;;;1.10;;
27505;SDS011;14939;43.596;1.320;2023-09-19T12:44:23;5.32;;;1.10;;
27505;SDS011;14939;43.596;1.320;2023-09-19T12:46:50;4.05;;;1.00;;
27505;SDS011;14939;43.596;1.320;2023-09-19T12:49:19;4.90;;;1.10;;
27505;SDS011;14939;43.596;1.320;2023-09-19T12:51:48;3.90;;;0.90;;
27505;SDS011;14939;43.596;1.320;2023-09-19T12:54:14;4.15;;;0.95;;
27505;SDS011;14939;43.596;1.320;2023-09-19T12:56:42;3.17;;;0.88;;
27505;SDS011;14939;43.596;1.320;2023-09-19T12:59:10;2.65;;;0.75;;
27505;SDS011;14939;43.596;1.320;2023-09-19T13:01:42;4.50;;;0.80;;
27505;SDS011;14939;43.596;1.320;2023-09-19T13:06:47;3.20;;;0.73;;
27505;SDS011;14939;43.596;1.320;2023-09-19T13:09:20;4.07;;;0.90;;
27505;SDS011;14939;43.596;1.320;2023-09-19T13:11:46;2.53;;;0.88;;
27505;SDS011;14939;43.596;1.320;2023-09-19T13:14:15;2.75;;;1.00;;
27505;SDS011;14939;43.596;1.320;2023-09-19T13:19:54;2.90;;;0.80;;
27505;SDS011;14939;43.596;1.320;2023-09-19T13:25:19;3.25;;;1.02;;
27505;SDS011;14939;43.596;1.320;2023-09-19T13:27:46;3.28;;;0.80;;
27505;SDS011;14939;43.596;1.320;2023-09-19T13:30:17;2.63;;;0.83;;
27505;SDS011;14939;43.596;1.320;2023-09-19T13:32:44;2.13;;;0.85;;
27505;SDS011;14939;43.596;1.320;2023-09-19T13:35:12;6.72;;;0.90;;
27505;SDS011;14939;43.596;1.320;2023-09-19T13:37:39;2.42;;;0.70;;
27505;SDS011;14939;43.596;1.320;2023-09-19T13:40:08;2.00;;;0.60;;
27505;SDS011;14939;43.596;1.320;2023-09-19T13:42:39;1.92;;;0.63;;
27505;SDS011;14939;43.596;1.320;2023-09-19T13:45:06;2.60;;;0.80;;
27505;SDS011;14939;43.596;1.320;2023-09-19T13:47:32;3.85;;;1.00;;
27505;SDS011;14939;43.596;1.320;2023-09-19T13:49:59;3.78;;;0.80;;
27505;SDS011;14939;43.596;1.320;2023-09-19T13:52:27;4.40;;;1.10;;
27505;SDS011;14939;43.596;1.320;2023-09-19T13:54:55;4.32;;;0.90;;
27505;SDS011;14939;43.596;1.320;2023-09-19T13:57:22;4.25;;;0.90;;
27505;SDS011;14939;43.596;1.320;2023-09-19T13:59:48;4.53;;;0.77;;
27505;SDS011;14939;43.596;1.320;2023-09-19T14:02:14;4.20;;;0.88;;
27505;SDS011;14939;43.596;1.320;2023-09-19T14:04:43;4.13;;;1.10;;
27505;SDS011;14939;43.596;1.320;2023-09-19T14:07:09;2.67;;;0.73;;
27505;SDS011;14939;43.596;1.320;2023-09-19T14:09:35;5.22;;;1.00;;
27505;SDS011;14939;43.596;1.320;2023-09-19T14:12:01;2.20;;;1.05;;
27505;SDS011;14939;43.596;1.320;2023-09-19T14:14:27;3.35;;;1.00;;
27505;SDS011;14939;43.596;1.320;2023-09-19T14:16:53;2.65;;;0.77;;
27505;SDS011;14939;43.596;1.320;2023-09-19T14:19:19;4.22;;;1.08;;
27505;SDS011;14939;43.596;1.320;2023-09-19T14:21:45;3.08;;;0.82;;
27505;SDS011;14939;43.596;1.320;2023-09-19T14:24:16;3.67;;;1.17;;
27505;SDS011;14939;43.596;1.320;2023-09-19T14:26:42;4.22;;;1.00;;
27505;SDS011;14939;43.596;1.320;2023-09-19T14:29:08;3.72;;;0.80;;
27505;SDS011;14939;43.596;1.320;2023-09-19T14:31:36;3.97;;;0.90;;
27505;SDS011;14939;43.596;1.320;2023-09-19T14:34:03;4.57;;;0.90;;
27505;SDS011;14939;43.596;1.320;2023-09-19T14:36:30;3.30;;;0.90;;
27505;SDS011;14939;43.596;1.320;2023-09-19T14:38:56;2.83;;;0.80;;
27505;SDS011;14939;43.596;1.320;2023-09-19T14:41:24;2.88;;;1.00;;
27505;SDS011;14939;43.596;1.320;2023-09-19T14:43:52;6.03;;;1.10;;
27505;SDS011;14939;43.596;1.320;2023-09-19T14:46:17;3.88;;;1.10;;
27505;SDS011;14939;43.596;1.320;2023-09-19T14:48:44;2.17;;;0.68;;
27505;SDS011;14939;43.596;1.320;2023-09-19T14:51:13;4.10;;;0.80;;
27505;SDS011;14939;43.596;1.320;2023-09-19T14:53:39;2.30;;;1.02;;
27505;SDS011;14939;43.596;1.320;2023-09-19T14:56:09;1.90;;;1.00;;
27505;SDS011;14939;43.596;1.320;2023-09-19T14:58:36;4.28;;;1.10;;
27505;SDS011;14939;43.596;1.320;2023-09-19T15:03:33;4.28;;;0.95;;
27505;SDS011;14939;43.596;1.320;2023-09-19T15:06:01;2.45;;;0.90;;
27505;SDS011;14939;43.596;1.320;2023-09-19T15:08:29;3.50;;;0.90;;
27505;SDS011;14939;43.596;1.320;2023-09-19T15:10:55;3.38;;;0.90;;
27505;SDS011;14939;43.596;1.320;2023-09-19T15:13:23;4.63;;;0.90;;
27505;SDS011;14939;43.596;1.320;2023-09-19T15:15:57;2.92;;;0.98;;
27505;SDS011;14939;43.596;1.320;2023-09-19T15:18:24;2.83;;;1.00;;
27505;SDS011;14939;43.596;1.320;2023-09-19T15:20:50;3.13;;;1.02;;
27505;SDS011;14939;43.596;1.320;2023-09-19T15:23:16;7.57;;;0.95;;
27505;SDS011;14939;43.596;1.320;2023-09-19T15:25:52;3.75;;;0.80;;
27505;SDS011;14939;43.596;1.320;2023-09-19T15:28:18;2.13;;;0.80;;
27505;SDS011;14939;43.596;1.320;2023-09-19T15:30:47;3.55;;;1.25;;
27505;SDS011;14939;43.596;1.320;2023-09-19T15:33:14;2.30;;;0.80;;
27505;SDS011;14939;43.596;1.320;2023-09-19T15:35:40;4.80;;;0.90;;
27505;SDS011;14939;43.596;1.320;2023-09-19T15:38:06;2.63;;;0.88;;
27505;SDS011;14939;43.596;1.320;2023-09-19T15:40:32;3.40;;;1.00;;
27505;SDS011;14939;43.596;1.320;2023-09-19T15:42:58;2.25;;;0.80;;
27505;SDS011;14939;43.596;1.320;2023-09-19T15:45:25;2.33;;;0.90;;
27505;SDS011;14939;43.596;1.320;2023-09-19T15:47:51;2.75;;;0.73;;
27505;SDS011;14939;43.596;1.320;2023-09-19T15:50:17;5.57;;;1.00;;
27505;SDS011;14939;43.596;1.320;2023-09-19T15:52:43;2.88;;;0.90;;
27505;SDS011;14939;43.596;1.320;2023-09-19T15:55:09;2.67;;;0.70;;
27505;SDS011;14939;43.596;1.320;2023-09-19T15:57:36;3.72;;;0.85;;
27505;SDS011;14939;43.596;1.320;2023-09-19T16:00:03;2.22;;;0.70;;